sensor_id;sensor_type;location;lat;lon;timestamp;P1;durP1;ratioP1;P2;durP2;ratioP2
4527;SDS011;62320;51.520;6.818;2022-11-30T00:01:21;69.63;;;17.53;;
4527;SDS011;62320;51.520;6.818;2022-11-30T00:11:24;62.75;;;17.15;;
4527;SDS011;62320;51.520;6.818;2022-11-30T00:21:28;80.03;;;20.10;;
4527;SDS011;62320;51.520;6.818;2022-11-30T00:31:29;67.00;;;18.37;;
4527;SDS011;62320;51.520;6.818;2022-11-30T00:41:31;67.28;;;18.88;;
4527;SDS011;62320;51.520;6.818;2022-11-30T00:51:32;61.17;;;17.98;;
4527;SDS011;62320;51.520;6.818;2022-11-30T01:01:34;58.40;;;16.40;;
4527;SDS011;62320;51.520;6.818;2022-11-30T01:11:35;25.93;;;10.23;;
4527;SDS011;62320;51.520;6.818;2022-11-30T01:21:37;24.65;;;10.15;;
4527;SDS011;62320;51.520;6.818;2022-11-30T01:31:38;38.97;;;14.17;;
4527;SDS011;62320;51.520;6.818;2022-11-30T01:41:39;35.53;;;12.77;;
4527;SDS011;62320;51.520;6.818;2022-11-30T01:51:50;25.92;;;11.70;;
4527;SDS011;62320;51.520;6.818;2022-11-30T02:01:56;23.47;;;9.03;;
4527;SDS011;62320;51.520;6.818;2022-11-30T02:11:58;28.17;;;11.83;;
4527;SDS011;62320;51.520;6.818;2022-11-30T02:32:31;27.98;;;9.52;;
4527;SDS011;62320;51.520;6.818;2022-11-30T02:42:36;34.33;;;12.80;;
4527;SDS011;62320;51.520;6.818;2022-11-30T02:52:37;38.77;;;13.37;;
4527;SDS011;62320;51.520;6.818;2022-11-30T03:02:39;41.13;;;14.13;;
4527;SDS011;62320;51.520;6.818;2022-11-30T03:12:41;32.33;;;12.03;;
4527;SDS011;62320;51.520;6.818;2022-11-30T03:22:43;41.17;;;13.73;;
4527;SDS011;62320;51.520;6.818;2022-11-30T03:32:44;42.20;;;13.15;;
4527;SDS011;62320;51.520;6.818;2022-11-30T03:42:46;42.70;;;14.83;;
4527;SDS011;62320;51.520;6.818;2022-11-30T03:52:47;40.07;;;14.53;;
4527;SDS011;62320;51.520;6.818;2022-11-30T04:02:48;39.60;;;14.55;;
4527;SDS011;62320;51.520;6.818;2022-11-30T04:12:50;41.10;;;13.50;;
4527;SDS011;62320;51.520;6.818;2022-11-30T04:22:51;42.60;;;14.30;;
4527;SDS011;62320;51.520;6.818;2022-11-30T04:32:53;40.20;;;14.50;;
4527;SDS011;62320;51.520;6.818;2022-11-30T04:42:54;33.70;;;12.55;;
4527;SDS011;62320;51.520;6.818;2022-11-30T04:52:55;33.80;;;13.43;;
4527;SDS011;62320;51.520;6.818;2022-11-30T05:02:57;35.10;;;12.10;;
4527;SDS011;62320;51.520;6.818;2022-11-30T05:12:58;34.83;;;12.73;;
4527;SDS011;62320;51.520;6.818;2022-11-30T05:23:00;36.57;;;13.30;;
4527;SDS011;62320;51.520;6.818;2022-11-30T05:33:01;36.47;;;14.40;;
4527;SDS011;62320;51.520;6.818;2022-11-30T05:43:11;37.35;;;14.00;;
4527;SDS011;62320;51.520;6.818;2022-11-30T05:53:37;35.92;;;13.27;;
4527;SDS011;62320;51.520;6.818;2022-11-30T06:03:39;34.40;;;12.50;;
4527;SDS011;62320;51.520;6.818;2022-11-30T06:13:40;36.37;;;15.10;;
4527;SDS011;62320;51.520;6.818;2022-11-30T06:23:42;38.15;;;13.93;;
4527;SDS011;62320;51.520;6.818;2022-11-30T06:33:45;34.47;;;13.00;;
4527;SDS011;62320;51.520;6.818;2022-11-30T06:43:46;38.63;;;14.33;;
4527;SDS011;62320;51.520;6.818;2022-11-30T06:53:48;38.17;;;15.10;;
4527;SDS011;62320;51.520;6.818;2022-11-30T07:03:49;37.00;;;13.43;;
4527;SDS011;62320;51.520;6.818;2022-11-30T07:13:50;40.37;;;15.40;;
4527;SDS011;62320;51.520;6.818;2022-11-30T07:23:52;39.58;;;15.13;;
4527;SDS011;62320;51.520;6.818;2022-11-30T07:34:12;39.72;;;13.20;;
4527;SDS011;62320;51.520;6.818;2022-11-30T07:44:13;37.60;;;14.93;;
4527;SDS011;62320;51.520;6.818;2022-11-30T07:54:15;40.67;;;15.20;;
4527;SDS011;62320;51.520;6.818;2022-11-30T08:04:16;44.97;;;16.13;;
4527;SDS011;62320;51.520;6.818;2022-11-30T08:14:18;44.57;;;15.90;;
4527;SDS011;62320;51.520;6.818;2022-11-30T08:24:19;41.33;;;15.87;;
4527;SDS011;62320;51.520;6.818;2022-11-30T08:34:21;39.40;;;14.77;;
4527;SDS011;62320;51.520;6.818;2022-11-30T08:44:22;38.00;;;14.50;;
4527;SDS011;62320;51.520;6.818;2022-11-30T08:54:24;40.87;;;13.80;;
4527;SDS011;62320;51.520;6.818;2022-11-30T09:04:27;30.10;;;11.35;;
4527;SDS011;62320;51.520;6.818;2022-11-30T09:14:28;39.35;;;14.82;;
4527;SDS011;62320;51.520;6.818;2022-11-30T09:24:30;39.37;;;14.93;;
4527;SDS011;62320;51.520;6.818;2022-11-30T09:34:31;42.80;;;16.17;;
4527;SDS011;62320;51.520;6.818;2022-11-30T09:54:50;40.17;;;13.90;;
4527;SDS011;62320;51.520;6.818;2022-11-30T10:04:52;41.53;;;15.73;;
4527;SDS011;62320;51.520;6.818;2022-11-30T10:35:38;39.57;;;15.27;;
4527;SDS011;62320;51.520;6.818;2022-11-30T10:45:43;28.80;;;10.85;;
4527;SDS011;62320;51.520;6.818;2022-11-30T10:55:54;40.35;;;15.13;;
4527;SDS011;62320;51.520;6.818;2022-11-30T11:06:04;42.73;;;14.60;;
4527;SDS011;62320;51.520;6.818;2022-11-30T11:16:12;40.57;;;14.70;;
4527;SDS011;62320;51.520;6.818;2022-11-30T11:26:24;47.65;;;16.00;;
4527;SDS011;62320;51.520;6.818;2022-11-30T11:36:30;41.03;;;14.30;;
4527;SDS011;62320;51.520;6.818;2022-11-30T11:46:34;28.13;;;12.27;;
4527;SDS011;62320;51.520;6.818;2022-11-30T11:56:38;36.72;;;14.98;;
4527;SDS011;62320;51.520;6.818;2022-11-30T12:06:40;44.80;;;16.83;;
4527;SDS011;62320;51.520;6.818;2022-11-30T12:37:12;34.35;;;12.65;;
4527;SDS011;62320;51.520;6.818;2022-11-30T12:57:30;33.33;;;12.87;;
4527;SDS011;62320;51.520;6.818;2022-11-30T13:07:42;24.48;;;8.90;;
4527;SDS011;62320;51.520;6.818;2022-11-30T13:17:48;41.20;;;14.70;;
4527;SDS011;62320;51.520;6.818;2022-11-30T13:27:54;36.40;;;13.90;;
4527;SDS011;62320;51.520;6.818;2022-11-30T13:38:11;38.83;;;14.45;;
4527;SDS011;62320;51.520;6.818;2022-11-30T13:48:37;33.47;;;13.67;;
4527;SDS011;62320;51.520;6.818;2022-11-30T14:19:46;26.52;;;10.13;;
4527;SDS011;62320;51.520;6.818;2022-11-30T14:29:51;21.57;;;8.90;;
4527;SDS011;62320;51.520;6.818;2022-11-30T14:39:56;29.93;;;11.57;;
4527;SDS011;62320;51.520;6.818;2022-11-30T14:50:04;31.80;;;13.35;;
4527;SDS011;62320;51.520;6.818;2022-11-30T15:00:13;31.23;;;11.23;;
4527;SDS011;62320;51.520;6.818;2022-11-30T15:10:27;26.80;;;10.20;;
4527;SDS011;62320;51.520;6.818;2022-11-30T15:20:39;24.77;;;10.35;;
4527;SDS011;62320;51.520;6.818;2022-11-30T15:30:45;26.40;;;10.20;;
4527;SDS011;62320;51.520;6.818;2022-11-30T15:40:47;26.93;;;11.00;;
4527;SDS011;62320;51.520;6.818;2022-11-30T15:50:57;26.92;;;10.98;;
4527;SDS011;62320;51.520;6.818;2022-11-30T16:11:08;30.67;;;11.23;;
4527;SDS011;62320;51.520;6.818;2022-11-30T16:21:11;29.87;;;11.43;;
4527;SDS011;62320;51.520;6.818;2022-11-30T16:31:17;27.17;;;11.65;;
4527;SDS011;62320;51.520;6.818;2022-11-30T16:41:21;19.27;;;9.07;;
4527;SDS011;62320;51.520;6.818;2022-11-30T16:51:27;22.67;;;8.50;;
4527;SDS011;62320;51.520;6.818;2022-11-30T17:01:53;20.65;;;8.15;;
4527;SDS011;62320;51.520;6.818;2022-11-30T17:11:53;24.43;;;10.40;;
4527;SDS011;62320;51.520;6.818;2022-11-30T17:21:54;21.43;;;8.37;;
4527;SDS011;62320;51.520;6.818;2022-11-30T17:31:56;30.20;;;11.00;;
4527;SDS011;62320;51.520;6.818;2022-11-30T17:41:57;28.23;;;10.27;;
4527;SDS011;62320;51.520;6.818;2022-11-30T17:51:59;20.93;;;7.40;;
4527;SDS011;62320;51.520;6.818;2022-11-30T18:02:00;22.27;;;8.57;;
4527;SDS011;62320;51.520;6.818;2022-11-30T18:12:02;21.02;;;7.97;;
4527;SDS011;62320;51.520;6.818;2022-11-30T18:22:03;16.40;;;6.30;;
4527;SDS011;62320;51.520;6.818;2022-11-30T18:32:04;23.43;;;8.47;;
4527;SDS011;62320;51.520;6.818;2022-11-30T18:42:06;21.08;;;8.73;;
4527;SDS011;62320;51.520;6.818;2022-11-30T18:52:07;15.60;;;6.87;;
4527;SDS011;62320;51.520;6.818;2022-11-30T19:02:09;19.53;;;7.53;;
4527;SDS011;62320;51.520;6.818;2022-11-30T19:12:11;24.50;;;8.40;;
4527;SDS011;62320;51.520;6.818;2022-11-30T19:22:13;15.48;;;5.63;;
4527;SDS011;62320;51.520;6.818;2022-11-30T19:32:15;20.53;;;7.83;;
4527;SDS011;62320;51.520;6.818;2022-11-30T19:42:16;14.83;;;5.67;;
4527;SDS011;62320;51.520;6.818;2022-11-30T19:52:17;18.88;;;7.03;;
4527;SDS011;62320;51.520;6.818;2022-11-30T20:02:20;14.23;;;5.50;;
4527;SDS011;62320;51.520;6.818;2022-11-30T20:12:21;16.23;;;6.27;;
4527;SDS011;62320;51.520;6.818;2022-11-30T20:22:23;19.75;;;8.20;;
4527;SDS011;62320;51.520;6.818;2022-11-30T20:32:24;17.80;;;6.53;;
4527;SDS011;62320;51.520;6.818;2022-11-30T20:42:26;15.67;;;6.23;;
4527;SDS011;62320;51.520;6.818;2022-11-30T20:52:27;20.27;;;7.95;;
4527;SDS011;62320;51.520;6.818;2022-11-30T21:02:28;17.27;;;7.40;;
4527;SDS011;62320;51.520;6.818;2022-11-30T21:12:30;21.87;;;8.27;;
4527;SDS011;62320;51.520;6.818;2022-11-30T21:22:31;14.00;;;4.77;;
4527;SDS011;62320;51.520;6.818;2022-11-30T21:32:33;21.05;;;7.53;;
4527;SDS011;62320;51.520;6.818;2022-11-30T21:42:34;25.17;;;9.13;;
4527;SDS011;62320;51.520;6.818;2022-11-30T21:52:36;16.83;;;7.53;;
4527;SDS011;62320;51.520;6.818;2022-11-30T22:02:37;24.02;;;7.95;;
4527;SDS011;62320;51.520;6.818;2022-11-30T22:12:39;20.10;;;7.07;;
4527;SDS011;62320;51.520;6.818;2022-11-30T22:22:40;26.40;;;9.40;;
4527;SDS011;62320;51.520;6.818;2022-11-30T22:32:41;29.00;;;8.82;;
4527;SDS011;62320;51.520;6.818;2022-11-30T22:42:43;31.88;;;10.23;;
4527;SDS011;62320;51.520;6.818;2022-11-30T22:52:45;32.93;;;10.70;;
4527;SDS011;62320;51.520;6.818;2022-11-30T23:03:03;23.57;;;8.20;;
4527;SDS011;62320;51.520;6.818;2022-11-30T23:13:05;31.00;;;9.95;;
4527;SDS011;62320;51.520;6.818;2022-11-30T23:23:06;24.50;;;8.83;;
4527;SDS011;62320;51.520;6.818;2022-11-30T23:33:07;25.07;;;7.80;;
4527;SDS011;62320;51.520;6.818;2022-11-30T23:43:10;31.92;;;9.43;;
4527;SDS011;62320;51.520;6.818;2022-11-30T23:53:11;45.57;;;13.57;;
